sensor_id;sensor_type;location;lat;lon;timestamp;pressure;altitude;pressure_sealevel;temperature;humidity
79138;BME280;68544;45.566;10.238;2023-09-18T00:00:48;99993.38;;;24.07;64.14
79138;BME280;68544;45.566;10.238;2023-09-18T00:03:19;100010.50;;;24.09;64.15
79138;BME280;68544;45.566;10.238;2023-09-18T00:05:46;100006.34;;;24.21;63.67
79138;BME280;68544;45.566;10.238;2023-09-18T00:08:13;99997.81;;;24.28;63.71
79138;BME280;68544;45.566;10.238;2023-09-18T00:10:38;99989.50;;;24.38;63.17
79138;BME280;68544;45.566;10.238;2023-09-18T00:13:03;99980.69;;;24.36;63.09
79138;BME280;68544;45.566;10.238;2023-09-18T00:15:29;99985.66;;;24.24;63.54
79138;BME280;68544;45.566;10.238;2023-09-18T00:17:55;99990.59;;;24.42;62.68
79138;BME280;68544;45.566;10.238;2023-09-18T00:20:21;99979.56;;;24.32;62.78
79138;BME280;68544;45.566;10.238;2023-09-18T00:22:52;99976.81;;;23.97;64.08
79138;BME280;68544;45.566;10.238;2023-09-18T00:25:17;99983.47;;;24.06;63.92
79138;BME280;68544;45.566;10.238;2023-09-18T00:27:42;99962.22;;;24.16;63.48
79138;BME280;68544;45.566;10.238;2023-09-18T00:30:08;99959.72;;;24.20;63.41
79138;BME280;68544;45.566;10.238;2023-09-18T00:32:34;99949.25;;;24.07;64.26
79138;BME280;68544;45.566;10.238;2023-09-18T00:34:59;99940.38;;;24.00;64.77
79138;BME280;68544;45.566;10.238;2023-09-18T00:37:24;99934.91;;;24.05;64.41
79138;BME280;68544;45.566;10.238;2023-09-18T00:39:49;99938.75;;;24.09;64.42
79138;BME280;68544;45.566;10.238;2023-09-18T00:42:15;99931.00;;;23.86;65.10
79138;BME280;68544;45.566;10.238;2023-09-18T00:44:43;99918.06;;;24.01;64.90
79138;BME280;68544;45.566;10.238;2023-09-18T00:47:08;99913.34;;;23.92;65.25
79138;BME280;68544;45.566;10.238;2023-09-18T00:49:34;99909.22;;;23.79;65.56
79138;BME280;68544;45.566;10.238;2023-09-18T00:52:01;99909.47;;;23.98;64.73
79138;BME280;68544;45.566;10.238;2023-09-18T00:54:26;99912.50;;;23.41;66.66
79138;BME280;68544;45.566;10.238;2023-09-18T00:56:52;99910.91;;;23.70;65.50
79138;BME280;68544;45.566;10.238;2023-09-18T00:59:19;99905.09;;;23.67;65.63
79138;BME280;68544;45.566;10.238;2023-09-18T01:01:47;99901.78;;;23.90;64.70
79138;BME280;68544;45.566;10.238;2023-09-18T01:04:14;99891.84;;;23.74;65.29
79138;BME280;68544;45.566;10.238;2023-09-18T01:06:40;99881.91;;;23.88;64.51
79138;BME280;68544;45.566;10.238;2023-09-18T01:09:05;99871.16;;;24.01;63.68
79138;BME280;68544;45.566;10.238;2023-09-18T01:12:12;99865.94;;;24.10;63.35
79138;BME280;68544;45.566;10.238;2023-09-18T01:14:44;99864.81;;;24.01;63.90
79138;BME280;68544;45.566;10.238;2023-09-18T01:17:16;99865.94;;;23.85;64.13
79138;BME280;68544;45.566;10.238;2023-09-18T01:19:43;99865.38;;;23.73;64.52
79138;BME280;68544;45.566;10.238;2023-09-18T01:22:17;99856.53;;;23.86;63.99
79138;BME280;68544;45.566;10.238;2023-09-18T01:24:47;99861.53;;;23.74;64.42
79138;BME280;68544;45.566;10.238;2023-09-18T01:27:14;99868.13;;;23.93;63.47
79138;BME280;68544;45.566;10.238;2023-09-18T01:29:40;99870.06;;;23.92;63.61
79138;BME280;68544;45.566;10.238;2023-09-18T01:32:05;99872.81;;;23.87;63.64
79138;BME280;68544;45.566;10.238;2023-09-18T01:34:36;99862.63;;;23.68;64.09
79138;BME280;68544;45.566;10.238;2023-09-18T01:37:03;99875.03;;;23.95;63.23
79138;BME280;68544;45.566;10.238;2023-09-18T01:39:31;99878.59;;;24.01;62.75
79138;BME280;68544;45.566;10.238;2023-09-18T01:42:02;99884.13;;;24.01;62.55
79138;BME280;68544;45.566;10.238;2023-09-18T01:44:28;99880.00;;;23.78;63.55
79138;BME280;68544;45.566;10.238;2023-09-18T01:46:56;99867.31;;;23.72;63.23
79138;BME280;68544;45.566;10.238;2023-09-18T01:49:31;99866.47;;;23.77;63.37
79138;BME280;68544;45.566;10.238;2023-09-18T01:51:57;99856.81;;;23.84;62.97
79138;BME280;68544;45.566;10.238;2023-09-18T01:54:22;99867.28;;;23.87;62.81
79138;BME280;68544;45.566;10.238;2023-09-18T01:56:48;99873.91;;;23.81;63.64
79138;BME280;68544;45.566;10.238;2023-09-18T01:59:13;99870.34;;;23.76;64.21
79138;BME280;68544;45.566;10.238;2023-09-18T02:01:39;99866.47;;;23.82;64.16
79138;BME280;68544;45.566;10.238;2023-09-18T02:04:04;99873.13;;;23.66;65.02
79138;BME280;68544;45.566;10.238;2023-09-18T02:06:30;99875.31;;;23.79;64.65
79138;BME280;68544;45.566;10.238;2023-09-18T02:08:55;99880.00;;;23.78;64.63
79138;BME280;68544;45.566;10.238;2023-09-18T02:11:20;99880.00;;;23.73;64.69
79138;BME280;68544;45.566;10.238;2023-09-18T02:13:46;99889.38;;;23.77;64.81
79138;BME280;68544;45.566;10.238;2023-09-18T02:16:11;99887.44;;;23.93;64.26
79138;BME280;68544;45.566;10.238;2023-09-18T02:18:37;99889.06;;;23.94;63.91
79138;BME280;68544;45.566;10.238;2023-09-18T02:21:02;99887.41;;;23.98;63.55
79138;BME280;68544;45.566;10.238;2023-09-18T02:23:27;99882.19;;;23.86;63.96
79138;BME280;68544;45.566;10.238;2023-09-18T02:25:57;99872.81;;;23.87;63.60
79138;BME280;68544;45.566;10.238;2023-09-18T02:28:22;99857.66;;;23.75;64.53
79138;BME280;68544;45.566;10.238;2023-09-18T02:30:47;99839.19;;;23.70;64.90
79138;BME280;68544;45.566;10.238;2023-09-18T02:33:13;99816.28;;;23.80;64.42
79138;BME280;68544;45.566;10.238;2023-09-18T02:35:38;99812.72;;;23.54;65.35
79138;BME280;68544;45.566;10.238;2023-09-18T02:38:04;99809.13;;;23.43;66.20
79138;BME280;68544;45.566;10.238;2023-09-18T02:40:30;99797.84;;;23.55;65.87
79138;BME280;68544;45.566;10.238;2023-09-18T02:42:55;99786.81;;;23.30;66.81
79138;BME280;68544;45.566;10.238;2023-09-18T02:45:20;99789.31;;;23.36;66.64
79138;BME280;68544;45.566;10.238;2023-09-18T02:47:46;99783.78;;;23.51;65.53
79138;BME280;68544;45.566;10.238;2023-09-18T02:50:11;99781.03;;;23.62;64.96
79138;BME280;68544;45.566;10.238;2023-09-18T02:52:36;99801.72;;;23.59;65.25
79138;BME280;68544;45.566;10.238;2023-09-18T02:55:02;99818.22;;;23.84;63.96
79138;BME280;68544;45.566;10.238;2023-09-18T02:57:28;99823.44;;;23.91;63.64
79138;BME280;68544;45.566;10.238;2023-09-18T02:59:53;99806.94;;;23.81;63.86
79138;BME280;68544;45.566;10.238;2023-09-18T03:02:19;99813.28;;;23.41;64.41
79138;BME280;68544;45.566;10.238;2023-09-18T03:04:44;99823.50;;;23.56;64.16
79138;BME280;68544;45.566;10.238;2023-09-18T03:07:09;99813.28;;;23.41;64.41
79138;BME280;68544;45.566;10.238;2023-09-18T03:09:35;99796.47;;;23.42;64.26
79138;BME280;68544;45.566;10.238;2023-09-18T03:12:01;99806.97;;;23.40;64.36
79138;BME280;68544;45.566;10.238;2023-09-18T03:14:26;99809.91;;;23.14;64.91
79138;BME280;68544;45.566;10.238;2023-09-18T03:16:51;99817.06;;;23.10;65.11
79138;BME280;68544;45.566;10.238;2023-09-18T03:19:16;99811.00;;;22.93;65.38
79138;BME280;68544;45.566;10.238;2023-09-18T03:21:42;99810.72;;;22.89;65.57
79138;BME280;68544;45.566;10.238;2023-09-18T03:24:07;99800.84;;;23.13;64.14
79138;BME280;68544;45.566;10.238;2023-09-18T03:26:32;99785.97;;;23.29;63.55
79138;BME280;68544;45.566;10.238;2023-09-18T03:28:58;99778.28;;;23.46;63.17
79138;BME280;68544;45.566;10.238;2023-09-18T03:31:23;99783.78;;;23.62;62.47
79138;BME280;68544;45.566;10.238;2023-09-18T03:33:48;99786.81;;;23.65;62.39
79138;BME280;68544;45.566;10.238;2023-09-18T03:36:13;99798.41;;;23.47;63.01
79138;BME280;68544;45.566;10.238;2023-09-18T03:38:39;99792.59;;;23.74;62.08
79138;BME280;68544;45.566;10.238;2023-09-18T03:41:05;99800.03;;;23.63;62.59
79138;BME280;68544;45.566;10.238;2023-09-18T03:43:30;99797.56;;;23.62;62.67
79138;BME280;68544;45.566;10.238;2023-09-18T03:46:06;99793.69;;;23.63;62.93
79138;BME280;68544;45.566;10.238;2023-09-18T03:48:32;99788.22;;;23.58;63.16
79138;BME280;68544;45.566;10.238;2023-09-18T03:51:05;99804.13;;;23.00;65.74
79138;BME280;68544;45.566;10.238;2023-09-18T03:53:32;99801.97;;;23.37;64.46
79138;BME280;68544;45.566;10.238;2023-09-18T03:55:58;99805.56;;;23.58;63.41
79138;BME280;68544;45.566;10.238;2023-09-18T03:58:23;99814.09;;;23.57;63.52
79138;BME280;68544;45.566;10.238;2023-09-18T04:00:49;99816.31;;;23.70;62.98
79138;BME280;68544;45.566;10.238;2023-09-18T04:03:14;99823.19;;;23.67;63.01
79138;BME280;68544;45.566;10.238;2023-09-18T04:05:39;99829.00;;;23.40;63.35
79138;BME280;68544;45.566;10.238;2023-09-18T04:08:05;99823.72;;;23.19;64.07
79138;BME280;68544;45.566;10.238;2023-09-18T04:10:30;99824.03;;;23.37;63.24
79138;BME280;68544;45.566;10.238;2023-09-18T04:12:56;99826.75;;;23.27;63.71
79138;BME280;68544;45.566;10.238;2023-09-18T04:15:22;99808.56;;;23.26;63.57
79138;BME280;68544;45.566;10.238;2023-09-18T04:17:48;99812.75;;;23.34;63.40
79138;BME280;68544;45.566;10.238;2023-09-18T04:20:13;99810.78;;;23.19;63.81
79138;BME280;68544;45.566;10.238;2023-09-18T04:22:43;99817.97;;;23.40;63.09
79138;BME280;68544;45.566;10.238;2023-09-18T04:25:08;99821.28;;;23.42;63.02
79138;BME280;68544;45.566;10.238;2023-09-18T04:27:34;99825.94;;;23.32;63.86
79138;BME280;68544;45.566;10.238;2023-09-18T04:29:59;99840.28;;;23.44;63.93
79138;BME280;68544;45.566;10.238;2023-09-18T04:32:27;99829.00;;;23.61;63.04
79138;BME280;68544;45.566;10.238;2023-09-18T04:34:52;99820.44;;;23.62;63.23
79138;BME280;68544;45.566;10.238;2023-09-18T04:37:18;99835.06;;;23.68;63.51
79138;BME280;68544;45.566;10.238;2023-09-18T04:39:43;99835.59;;;23.65;63.88
79138;BME280;68544;45.566;10.238;2023-09-18T04:42:08;99838.91;;;23.57;63.94
79138;BME280;68544;45.566;10.238;2023-09-18T04:44:34;99838.91;;;23.51;63.41
79138;BME280;68544;45.566;10.238;2023-09-18T04:46:59;99850.47;;;23.33;63.64
79138;BME280;68544;45.566;10.238;2023-09-18T04:49:25;99846.03;;;23.17;64.18
79138;BME280;68544;45.566;10.238;2023-09-18T04:51:50;99846.56;;;23.24;63.61
79138;BME280;68544;45.566;10.238;2023-09-18T04:54:15;99843.00;;;23.29;63.20
79138;BME280;68544;45.566;10.238;2023-09-18T04:56:40;99843.63;;;23.51;62.57
79138;BME280;68544;45.566;10.238;2023-09-18T04:59:06;99843.91;;;23.60;62.24
79138;BME280;68544;45.566;10.238;2023-09-18T05:01:31;99837.53;;;23.64;61.79
79138;BME280;68544;45.566;10.238;2023-09-18T05:03:57;99824.59;;;23.54;62.62
79138;BME280;68544;45.566;10.238;2023-09-18T05:06:22;99823.47;;;23.45;63.57
79138;BME280;68544;45.566;10.238;2023-09-18T05:08:48;99825.16;;;23.46;63.68
79138;BME280;68544;45.566;10.238;2023-09-18T05:11:13;99822.38;;;23.57;62.98
79138;BME280;68544;45.566;10.238;2023-09-18T05:13:38;99815.44;;;23.19;64.46
79138;BME280;68544;45.566;10.238;2023-09-18T05:16:03;99810.25;;;23.42;63.39
79138;BME280;68544;45.566;10.238;2023-09-18T05:18:29;99802.53;;;23.54;62.98
79138;BME280;68544;45.566;10.238;2023-09-18T05:20:54;99803.34;;;23.60;62.76
79138;BME280;68544;45.566;10.238;2023-09-18T05:23:20;99797.31;;;23.38;63.40
79138;BME280;68544;45.566;10.238;2023-09-18T05:25:45;99799.50;;;23.46;63.23
79138;BME280;68544;45.566;10.238;2023-09-18T05:28:10;99805.00;;;23.46;63.68
79138;BME280;68544;45.566;10.238;2023-09-18T05:30:36;99805.28;;;23.60;63.22
79138;BME280;68544;45.566;10.238;2023-09-18T05:33:05;99803.31;;;23.25;64.60
79138;BME280;68544;45.566;10.238;2023-09-18T05:35:40;99821.72;;;22.84;66.23
79138;BME280;68544;45.566;10.238;2023-09-18T05:38:06;99818.50;;;23.27;64.48
79138;BME280;68544;45.566;10.238;2023-09-18T05:40:32;99832.03;;;23.34;64.32
79138;BME280;68544;45.566;10.238;2023-09-18T05:42:58;99819.63;;;23.41;63.78
79138;BME280;68544;45.566;10.238;2023-09-18T05:45:23;99822.91;;;23.74;62.91
79138;BME280;68544;45.566;10.238;2023-09-18T05:47:49;99824.56;;;23.85;62.70
79138;BME280;68544;45.566;10.238;2023-09-18T05:50:15;99833.38;;;23.97;62.18
79138;BME280;68544;45.566;10.238;2023-09-18T05:52:48;99828.97;;;24.06;62.07
79138;BME280;68544;45.566;10.238;2023-09-18T05:55:16;99823.16;;;24.07;61.45
79138;BME280;68544;45.566;10.238;2023-09-18T05:57:42;99824.03;;;23.58;62.93
79138;BME280;68544;45.566;10.238;2023-09-18T06:00:07;99812.97;;;23.22;64.58
79138;BME280;68544;45.566;10.238;2023-09-18T06:02:33;99823.47;;;23.61;63.02
79138;BME280;68544;45.566;10.238;2023-09-18T06:04:59;99822.38;;;23.72;62.47
79138;BME280;68544;45.566;10.238;2023-09-18T06:07:26;99822.91;;;23.74;62.26
79138;BME280;68544;45.566;10.238;2023-09-18T06:09:52;99819.59;;;23.82;61.92
79138;BME280;68544;45.566;10.238;2023-09-18T06:12:17;99830.31;;;24.08;61.51
79138;BME280;68544;45.566;10.238;2023-09-18T06:14:42;99828.94;;;24.01;62.26
79138;BME280;68544;45.566;10.238;2023-09-18T06:17:08;99826.72;;;24.13;61.65
79138;BME280;68544;45.566;10.238;2023-09-18T06:19:34;99826.69;;;24.28;61.12
79138;BME280;68544;45.566;10.238;2023-09-18T06:22:00;99826.44;;;24.19;61.54
79138;BME280;68544;45.566;10.238;2023-09-18T06:24:25;99827.41;;;24.54;60.44
79138;BME280;68544;45.566;10.238;2023-09-18T06:26:50;99804.03;;;24.36;60.68
79138;BME280;68544;45.566;10.238;2023-09-18T06:29:16;99810.97;;;24.23;61.23
79138;BME280;68544;45.566;10.238;2023-09-18T06:31:41;99799.09;;;24.33;60.94
79138;BME280;68544;45.566;10.238;2023-09-18T06:34:06;99793.56;;;24.33;60.83
79138;BME280;68544;45.566;10.238;2023-09-18T06:36:32;99757.94;;;24.37;61.11
79138;BME280;68544;45.566;10.238;2023-09-18T06:38:57;99744.72;;;24.23;62.43
79138;BME280;68544;45.566;10.238;2023-09-18T06:41:23;99727.34;;;24.23;62.47
79138;BME280;68544;45.566;10.238;2023-09-18T06:43:48;99694.19;;;23.59;65.35
79138;BME280;68544;45.566;10.238;2023-09-18T06:46:14;99691.41;;;23.64;65.39
79138;BME280;68544;45.566;10.238;2023-09-18T06:48:39;99678.09;;;23.86;64.51
79138;BME280;68544;45.566;10.238;2023-09-18T06:51:04;99652.25;;;23.72;64.53
79138;BME280;68544;45.566;10.238;2023-09-18T06:53:31;99647.47;;;23.93;63.50
79138;BME280;68544;45.566;10.238;2023-09-18T06:55:56;99654.81;;;24.17;62.23
79138;BME280;68544;45.566;10.238;2023-09-18T06:58:22;99651.13;;;24.37;61.72
79138;BME280;68544;45.566;10.238;2023-09-18T07:00:47;99680.84;;;24.50;61.48
79138;BME280;68544;45.566;10.238;2023-09-18T07:03:15;99705.88;;;24.64;60.69
79138;BME280;68544;45.566;10.238;2023-09-18T07:05:41;99724.34;;;24.68;60.72
79138;BME280;68544;45.566;10.238;2023-09-18T07:08:07;99742.25;;;24.76;60.38
79138;BME280;68544;45.566;10.238;2023-09-18T07:10:36;99746.09;;;25.19;59.09
79138;BME280;68544;45.566;10.238;2023-09-18T07:13:02;99735.75;;;25.63;57.73
79138;BME280;68544;45.566;10.238;2023-09-18T07:15:27;99743.66;;;25.74;57.67
79138;BME280;68544;45.566;10.238;2023-09-18T07:17:53;99749.91;;;25.85;57.02
79138;BME280;68544;45.566;10.238;2023-09-18T07:20:18;99749.22;;;26.22;56.60
79138;BME280;68544;45.566;10.238;2023-09-18T07:22:45;99744.03;;;26.39;55.79
79138;BME280;68544;45.566;10.238;2023-09-18T07:25:10;99743.34;;;26.28;55.97
79138;BME280;68544;45.566;10.238;2023-09-18T07:27:36;99734.38;;;26.36;56.09
79138;BME280;68544;45.566;10.238;2023-09-18T07:30:04;99725.56;;;26.72;55.26
79138;BME280;68544;45.566;10.238;2023-09-18T07:32:29;99729.16;;;26.53;55.87
79138;BME280;68544;45.566;10.238;2023-09-18T07:34:55;99727.09;;;26.22;57.00
79138;BME280;68544;45.566;10.238;2023-09-18T07:37:20;99729.38;;;25.91;57.98
79138;BME280;68544;45.566;10.238;2023-09-18T07:39:46;99722.59;;;26.02;57.65
79138;BME280;68544;45.566;10.238;2023-09-18T07:42:12;99702.81;;;25.90;57.82
79138;BME280;68544;45.566;10.238;2023-09-18T07:44:37;99717.56;;;26.04;58.22
79138;BME280;68544;45.566;10.238;2023-09-18T07:47:02;99720.94;;;25.77;57.65
79138;BME280;68544;45.566;10.238;2023-09-18T07:49:28;99708.34;;;25.90;57.66
79138;BME280;68544;45.566;10.238;2023-09-18T07:51:53;99702.63;;;26.05;56.76
79138;BME280;68544;45.566;10.238;2023-09-18T07:54:18;99695.56;;;25.94;57.01
79138;BME280;68544;45.566;10.238;2023-09-18T07:56:43;99696.94;;;25.73;57.01
79138;BME280;68544;45.566;10.238;2023-09-18T07:59:09;99695.28;;;25.72;57.70
79138;BME280;68544;45.566;10.238;2023-09-18T08:01:35;99714.31;;;25.78;57.30
79138;BME280;68544;45.566;10.238;2023-09-18T08:04:01;99714.22;;;26.12;55.95
79138;BME280;68544;45.566;10.238;2023-09-18T08:06:26;99709.53;;;25.84;56.86
79138;BME280;68544;45.566;10.238;2023-09-18T08:08:53;99697.97;;;26.01;56.97
79138;BME280;68544;45.566;10.238;2023-09-18T08:11:18;99707.69;;;25.98;57.02
79138;BME280;68544;45.566;10.238;2023-09-18T08:13:44;99722.97;;;26.19;56.44
79138;BME280;68544;45.566;10.238;2023-09-18T08:16:09;99728.34;;;26.29;56.42
79138;BME280;68544;45.566;10.238;2023-09-18T08:18:35;99726.53;;;26.62;55.28
79138;BME280;68544;45.566;10.238;2023-09-18T08:21:00;99731.59;;;26.79;54.99
79138;BME280;68544;45.566;10.238;2023-09-18T08:23:26;99732.09;;;27.64;52.17
79138;BME280;68544;45.566;10.238;2023-09-18T08:25:51;99730.22;;;28.05;51.12
79138;BME280;68544;45.566;10.238;2023-09-18T08:28:20;99726.16;;;28.52;50.22
79138;BME280;68544;45.566;10.238;2023-09-18T08:30:45;99715.81;;;28.30;50.75
79138;BME280;68544;45.566;10.238;2023-09-18T08:33:13;99713.09;;;28.88;49.54
79138;BME280;68544;45.566;10.238;2023-09-18T08:35:38;99713.75;;;28.22;50.97
79138;BME280;68544;45.566;10.238;2023-09-18T08:38:04;99725.88;;;28.89;49.38
79138;BME280;68544;45.566;10.238;2023-09-18T08:40:30;99723.16;;;29.95;46.22
79138;BME280;68544;45.566;10.238;2023-09-18T08:42:56;99727.38;;;29.84;46.47
79138;BME280;68544;45.566;10.238;2023-09-18T08:45:36;99746.00;;;29.08;48.33
79138;BME280;68544;45.566;10.238;2023-09-18T08:48:05;99727.03;;;29.10;48.85
79138;BME280;68544;45.566;10.238;2023-09-18T08:50:31;99731.97;;;28.77;49.92
79138;BME280;68544;45.566;10.238;2023-09-18T08:52:58;99717.72;;;28.92;49.53
79138;BME280;68544;45.566;10.238;2023-09-18T08:55:24;99726.03;;;29.06;49.06
79138;BME280;68544;45.566;10.238;2023-09-18T08:57:49;99703.53;;;28.45;50.79
79138;BME280;68544;45.566;10.238;2023-09-18T09:00:16;99701.72;;;28.13;51.85
79138;BME280;68544;45.566;10.238;2023-09-18T09:02:44;99707.38;;;27.94;52.21
79138;BME280;68544;45.566;10.238;2023-09-18T09:05:10;99701.06;;;28.43;51.46
79138;BME280;68544;45.566;10.238;2023-09-18T09:07:35;99690.19;;;29.57;47.83
79138;BME280;68544;45.566;10.238;2023-09-18T09:10:01;99694.44;;;29.02;48.92
79138;BME280;68544;45.566;10.238;2023-09-18T09:15:17;99674.38;;;28.06;51.99
79138;BME280;68544;45.566;10.238;2023-09-18T09:17:43;99682.25;;;27.72;53.13
79138;BME280;68544;45.566;10.238;2023-09-18T09:20:11;99677.84;;;27.85;52.63
79138;BME280;68544;45.566;10.238;2023-09-18T09:22:38;99675.59;;;27.73;53.56
79138;BME280;68544;45.566;10.238;2023-09-18T09:25:27;99687.91;;;27.40;54.47
79138;BME280;68544;45.566;10.238;2023-09-18T09:27:52;99702.59;;;27.22;54.94
79138;BME280;68544;45.566;10.238;2023-09-18T09:30:23;99718.38;;;26.71;56.62
79138;BME280;68544;45.566;10.238;2023-09-18T09:32:51;99711.78;;;26.67;56.40
79138;BME280;68544;45.566;10.238;2023-09-18T09:35:25;99698.75;;;26.48;57.63
79138;BME280;68544;45.566;10.238;2023-09-18T09:38:07;99698.22;;;26.04;58.43
79138;BME280;68544;45.566;10.238;2023-09-18T09:40:32;99692.66;;;26.04;59.13
79138;BME280;68544;45.566;10.238;2023-09-18T09:42:58;99663.16;;;25.76;60.22
79138;BME280;68544;45.566;10.238;2023-09-18T09:45:28;99665.97;;;26.18;59.88
79138;BME280;68544;45.566;10.238;2023-09-18T09:48:00;99653.69;;;26.24;59.98
79138;BME280;68544;45.566;10.238;2023-09-18T09:50:26;99655.97;;;25.75;61.75
79138;BME280;68544;45.566;10.238;2023-09-18T09:52:53;99660.16;;;25.49;63.01
79138;BME280;68544;45.566;10.238;2023-09-18T09:57:54;99668.28;;;26.06;60.93
79138;BME280;68544;45.566;10.238;2023-09-18T10:00:23;99660.19;;;26.15;60.71
79138;BME280;68544;45.566;10.238;2023-09-18T10:03:00;99657.41;;;26.33;60.18
79138;BME280;68544;45.566;10.238;2023-09-18T10:05:31;99642.53;;;26.85;58.46
79138;BME280;68544;45.566;10.238;2023-09-18T10:07:59;99635.19;;;26.94;57.13
79138;BME280;68544;45.566;10.238;2023-09-18T10:10:36;99642.75;;;26.89;57.40
79138;BME280;68544;45.566;10.238;2023-09-18T10:13:10;99633.69;;;26.46;58.59
79138;BME280;68544;45.566;10.238;2023-09-18T10:15:38;99637.59;;;26.63;58.25
79138;BME280;68544;45.566;10.238;2023-09-18T10:18:10;99636.75;;;26.07;58.97
79138;BME280;68544;45.566;10.238;2023-09-18T10:20:39;99636.09;;;26.71;57.03
79138;BME280;68544;45.566;10.238;2023-09-18T10:23:14;99632.25;;;27.18;55.63
79138;BME280;68544;45.566;10.238;2023-09-18T10:25:47;99612.38;;;26.84;56.59
79138;BME280;68544;45.566;10.238;2023-09-18T10:28:14;99636.41;;;26.51;57.37
79138;BME280;68544;45.566;10.238;2023-09-18T10:30:41;99615.94;;;27.30;55.29
79138;BME280;68544;45.566;10.238;2023-09-18T10:33:07;99626.50;;;27.14;54.27
79138;BME280;68544;45.566;10.238;2023-09-18T10:35:34;99626.25;;;27.84;52.84
79138;BME280;68544;45.566;10.238;2023-09-18T10:38:02;99627.31;;;29.17;49.49
79138;BME280;68544;45.566;10.238;2023-09-18T10:40:28;99629.72;;;30.79;45.37
79138;BME280;68544;45.566;10.238;2023-09-18T10:42:54;99630.56;;;29.81;47.53
79138;BME280;68544;45.566;10.238;2023-09-18T10:45:19;99644.00;;;29.17;49.47
79138;BME280;68544;45.566;10.238;2023-09-18T10:47:46;99654.72;;;29.10;49.76
79138;BME280;68544;45.566;10.238;2023-09-18T10:50:26;99652.69;;;28.58;51.25
79138;BME280;68544;45.566;10.238;2023-09-18T10:52:51;99658.50;;;28.92;49.30
79138;BME280;68544;45.566;10.238;2023-09-18T10:55:17;99634.91;;;28.81;48.68
79138;BME280;68544;45.566;10.238;2023-09-18T10:57:53;99640.72;;;28.71;48.53
79138;BME280;68544;45.566;10.238;2023-09-18T11:00:19;99622.78;;;28.77;49.32
79138;BME280;68544;45.566;10.238;2023-09-18T11:02:50;99614.13;;;28.78;48.38
79138;BME280;68544;45.566;10.238;2023-09-18T11:05:28;99614.31;;;28.10;50.11
79138;BME280;68544;45.566;10.238;2023-09-18T11:08:26;99618.19;;;29.25;47.70
79138;BME280;68544;45.566;10.238;2023-09-18T11:11:01;99613.31;;;29.31;47.45
79138;BME280;68544;45.566;10.238;2023-09-18T11:13:31;99622.81;;;29.38;46.77
79138;BME280;68544;45.566;10.238;2023-09-18T11:16:45;99599.44;;;31.33;42.15
79138;BME280;68544;45.566;10.238;2023-09-18T11:18:47;99593.88;;;31.24;41.80
79138;BME280;68544;45.566;10.238;2023-09-18T11:21:15;99591.47;;;31.14;42.79
79138;BME280;68544;45.566;10.238;2023-09-18T11:23:42;99607.94;;;30.56;43.72
79138;BME280;68544;45.566;10.238;2023-09-18T11:26:09;99608.78;;;29.83;45.47
79138;BME280;68544;45.566;10.238;2023-09-18T11:28:35;99601.31;;;29.22;46.63
79138;BME280;68544;45.566;10.238;2023-09-18T11:31:02;99595.69;;;29.44;46.78
79138;BME280;68544;45.566;10.238;2023-09-18T11:36:14;99600.41;;;30.48;44.27
79138;BME280;68544;45.566;10.238;2023-09-18T11:38:56;99593.56;;;32.84;39.00
79138;BME280;68544;45.566;10.238;2023-09-18T11:41:29;99583.25;;;34.01;36.46
79138;BME280;68544;45.566;10.238;2023-09-18T11:46:35;99575.38;;;32.36;39.33
79138;BME280;68544;45.566;10.238;2023-09-18T11:49:03;99572.69;;;31.32;41.85
79138;BME280;68544;45.566;10.238;2023-09-18T11:51:31;99587.09;;;30.87;43.16
79138;BME280;68544;45.566;10.238;2023-09-18T11:53:57;99580.44;;;31.17;42.60
79138;BME280;68544;45.566;10.238;2023-09-18T11:56:23;99586.38;;;31.62;41.24
79138;BME280;68544;45.566;10.238;2023-09-18T11:58:51;99574.56;;;33.34;37.38
79138;BME280;68544;45.566;10.238;2023-09-18T12:01:18;99584.53;;;32.45;39.02
79138;BME280;68544;45.566;10.238;2023-09-18T12:03:44;99582.88;;;31.74;40.29
79138;BME280;68544;45.566;10.238;2023-09-18T12:06:10;99592.97;;;30.94;42.04
79138;BME280;68544;45.566;10.238;2023-09-18T12:08:39;99596.63;;;30.35;44.15
79138;BME280;68544;45.566;10.238;2023-09-18T12:11:05;99575.41;;;31.02;42.55
79138;BME280;68544;45.566;10.238;2023-09-18T12:13:31;99578.25;;;30.68;42.71
79138;BME280;68544;45.566;10.238;2023-09-18T12:16:06;99577.28;;;30.56;41.70
79138;BME280;68544;45.566;10.238;2023-09-18T12:18:35;99584.28;;;30.19;43.87
79138;BME280;68544;45.566;10.238;2023-09-18T12:21:05;99582.78;;;29.96;44.83
79138;BME280;68544;45.566;10.238;2023-09-18T12:23:37;99587.81;;;29.77;45.54
79138;BME280;68544;45.566;10.238;2023-09-18T12:26:03;99577.00;;;29.75;45.42
79138;BME280;68544;45.566;10.238;2023-09-18T12:28:29;99569.50;;;29.45;45.53
79138;BME280;68544;45.566;10.238;2023-09-18T12:30:56;99569.66;;;29.40;45.15
79138;BME280;68544;45.566;10.238;2023-09-18T12:33:25;99573.41;;;29.35;45.45
79138;BME280;68544;45.566;10.238;2023-09-18T12:35:51;99577.69;;;29.41;45.67
79138;BME280;68544;45.566;10.238;2023-09-18T12:38:18;99565.81;;;29.66;45.45
79138;BME280;68544;45.566;10.238;2023-09-18T12:40:50;99564.69;;;29.67;45.55
79138;BME280;68544;45.566;10.238;2023-09-18T12:43:16;99564.47;;;29.16;47.01
79138;BME280;68544;45.566;10.238;2023-09-18T12:45:43;99558.63;;;28.96;47.95
79138;BME280;68544;45.566;10.238;2023-09-18T12:48:09;99556.50;;;28.70;49.20
79138;BME280;68544;45.566;10.238;2023-09-18T12:50:35;99547.41;;;28.78;48.57
79138;BME280;68544;45.566;10.238;2023-09-18T12:53:27;99551.25;;;28.91;48.54
79138;BME280;68544;45.566;10.238;2023-09-18T12:55:52;99546.06;;;28.76;48.78
79138;BME280;68544;45.566;10.238;2023-09-18T12:58:21;99545.91;;;28.72;49.38
79138;BME280;68544;45.566;10.238;2023-09-18T13:00:47;99540.72;;;28.57;49.52